createdAt,value
2023-05-05T00:03:57.034Z,13.87
2023-05-05T00:09:00.078Z,13.83
2023-05-05T00:14:01.691Z,13.82
2023-05-05T00:19:03.270Z,13.85
2023-05-05T00:24:06.716Z,13.80
2023-05-05T00:29:08.364Z,13.83
2023-05-05T00:34:10.005Z,13.79
2023-05-05T00:39:12.900Z,13.69
2023-05-05T00:44:14.692Z,13.60
2023-05-05T00:49:16.507Z,13.56
2023-05-05T00:54:19.580Z,13.54
2023-05-05T00:59:21.268Z,13.46
2023-05-05T01:04:25.552Z,13.45
2023-05-05T01:09:39.632Z,13.40
2023-05-05T01:14:54.720Z,13.45
2023-05-05T01:20:10.768Z,13.41
2023-05-05T01:25:46.759Z,13.38
2023-05-05T01:31:06.318Z,13.29
2023-05-05T01:36:25.011Z,13.28
2023-05-05T01:41:30.787Z,13.34
2023-05-05T01:46:33.961Z,13.44
2023-05-05T01:51:40.102Z,13.40
2023-05-05T01:56:42.976Z,13.56
2023-05-05T02:01:46.319Z,13.54
2023-05-05T02:06:50.861Z,13.37
2023-05-05T02:11:53.093Z,13.41
2023-05-05T02:16:58.897Z,13.48
2023-05-05T02:22:09.829Z,13.44
2023-05-05T02:27:12.049Z,13.53
2023-05-05T02:32:27.660Z,13.61
2023-05-05T02:37:36.149Z,13.75
2023-05-05T02:42:43.890Z,13.80
2023-05-05T02:47:45.445Z,13.71
2023-05-05T02:52:50.031Z,13.59
2023-05-05T02:58:00.463Z,13.49
2023-05-05T03:03:10.400Z,13.39
2023-05-05T03:08:20.326Z,13.24
2023-05-05T03:13:25.316Z,13.24
2023-05-05T03:18:28.952Z,13.29
2023-05-05T03:23:35.064Z,13.23
2023-05-05T03:28:38.474Z,13.26
2023-05-05T03:33:41.192Z,13.33
2023-05-05T03:38:44.153Z,13.13
2023-05-05T03:43:48.146Z,13.20
2023-05-05T03:49:04.856Z,13.23
2023-05-05T03:54:10.163Z,12.86
2023-05-05T03:59:11.804Z,12.74
2023-05-05T04:04:13.521Z,13.00
2023-05-05T04:09:18.836Z,13.15
2023-05-05T04:14:20.458Z,13.26
2023-05-05T04:19:22.110Z,13.32
2023-05-05T04:24:27.303Z,13.37
2023-05-05T04:29:28.853Z,13.34
2023-05-05T04:34:30.443Z,13.54
2023-05-05T04:39:33.504Z,13.79
2023-05-05T04:44:35.250Z,13.95
2023-05-05T04:49:37.056Z,14.02
2023-05-05T04:54:40.093Z,14.13
2023-05-05T04:59:41.686Z,14.45
2023-05-05T05:04:43.273Z,14.61
2023-05-05T05:09:46.348Z,14.64
2023-05-05T05:14:47.960Z,14.87
2023-05-05T05:19:52.164Z,14.98
2023-05-05T05:24:57.576Z,15.04
2023-05-05T05:29:59.229Z,15.16
2023-05-05T05:35:00.802Z,15.47
2023-05-05T05:40:05.311Z,15.94
2023-05-05T05:45:08.446Z,16.00
2023-05-05T05:50:12.862Z,16.21
2023-05-05T05:55:16.036Z,16.52
2023-05-05T06:00:18.184Z,17.05
2023-05-05T06:05:27.024Z,17.27
2023-05-05T06:10:30.290Z,17.44
2023-05-05T06:15:32.107Z,17.29
2023-05-05T06:20:36.023Z,17.03
2023-05-05T06:25:39.161Z,17.07
2023-05-05T06:30:40.728Z,17.27
2023-05-05T06:35:42.389Z,16.98
2023-05-05T06:40:47.658Z,17.16
2023-05-05T06:45:49.325Z,17.52
2023-05-05T06:50:50.937Z,17.49
2023-05-05T06:55:53.924Z,17.64
2023-05-05T07:00:57.578Z,17.81
2023-05-05T07:05:59.175Z,17.63
2023-05-05T07:11:02.191Z,17.71
2023-05-05T07:16:04.424Z,17.50
2023-05-05T07:21:06.127Z,17.49
2023-05-05T07:26:09.243Z,17.61
2023-05-05T07:31:12.261Z,17.78
2023-05-05T07:36:14.142Z,17.87
2023-05-05T07:41:17.097Z,17.65
2023-05-05T07:46:18.739Z,17.83
2023-05-05T07:51:20.369Z,17.86
2023-05-05T07:56:23.594Z,17.81
2023-05-05T08:01:25.248Z,17.76
2023-05-05T08:06:26.904Z,17.95
2023-05-05T08:11:37.276Z,17.78
2023-05-05T08:16:38.862Z,18.03
2023-05-05T08:21:41.491Z,18.13
2023-05-05T08:26:46.771Z,18.07
2023-05-05T08:31:48.575Z,17.72
2023-05-05T08:36:50.258Z,17.55
2023-05-05T08:41:53.233Z,17.53
2023-05-05T08:46:56.384Z,17.67
2023-05-05T08:52:08.899Z,17.87
2023-05-05T08:57:16.252Z,18.16
2023-05-05T09:02:26.788Z,18.74
2023-05-05T09:07:28.588Z,17.78
2023-05-05T09:12:35.184Z,17.35
2023-05-05T09:17:39.539Z,17.09
2023-05-05T09:22:43.246Z,17.28
2023-05-05T09:27:47.701Z,17.16
2023-05-05T09:33:01.884Z,17.07
2023-05-05T09:38:11.272Z,16.74
2023-05-05T09:43:18.330Z,16.36
2023-05-05T09:48:24.757Z,16.44
2023-05-05T09:53:29.378Z,16.66
2023-05-05T09:58:32.632Z,16.39
2023-05-05T10:03:50.045Z,16.63
2023-05-05T10:09:03.099Z,16.74
2023-05-05T10:14:07.631Z,16.80
2023-05-05T10:19:19.404Z,17.75
2023-05-05T10:24:30.490Z,17.80
2023-05-05T10:29:45.471Z,17.75
2023-05-05T10:34:51.475Z,18.46
2023-05-05T10:39:55.218Z,19.35
2023-05-05T10:44:58.292Z,18.76
2023-05-05T10:50:06.218Z,19.33
2023-05-05T10:55:13.653Z,18.65
2023-05-05T11:00:50.648Z,18.89
2023-05-05T11:06:19.291Z,18.68
2023-05-05T11:11:58.519Z,18.59
2023-05-05T11:17:01.689Z,18.97
2023-05-05T11:22:06.142Z,19.03
2023-05-05T11:27:08.059Z,19.37
2023-05-05T11:32:14.792Z,19.57
2023-05-05T11:37:16.622Z,19.09
2023-05-05T11:42:25.878Z,19.44
2023-05-05T11:47:30.854Z,19.45
2023-05-05T11:52:32.548Z,20.01
2023-05-05T11:57:34.148Z,19.72
2023-05-05T12:02:37.157Z,20.24
2023-05-05T12:07:39.062Z,19.95
2023-05-05T12:12:40.836Z,20.20
2023-05-05T12:17:44.008Z,21.48
2023-05-05T12:22:45.617Z,21.73
2023-05-05T12:27:54.400Z,22.23
2023-05-05T12:33:02.502Z,22.50
2023-05-05T12:38:05.474Z,21.71
2023-05-05T12:43:09.390Z,22.62
2023-05-05T12:48:24.492Z,23.01
2023-05-05T12:53:27.356Z,22.91
2023-05-05T12:58:31.081Z,23.26
2023-05-05T13:03:38.774Z,23.04
2023-05-05T13:08:43.660Z,21.93
2023-05-05T13:13:47.256Z,21.35
2023-05-05T13:18:50.698Z,21.10
2023-05-05T13:23:59.116Z,20.75
2023-05-05T13:29:06.680Z,21.32
2023-05-05T13:34:09.775Z,21.52
2023-05-05T13:39:11.571Z,21.53
2023-05-05T13:44:15.316Z,22.19
2023-05-05T13:49:18.397Z,22.20
2023-05-05T13:54:20.034Z,22.30
2023-05-05T13:59:21.734Z,22.09
2023-05-05T14:04:25.062Z,21.79
2023-05-05T14:09:26.837Z,21.60
2023-05-05T14:14:30.618Z,21.83
2023-05-05T14:19:33.809Z,21.81
2023-05-05T14:24:37.144Z,20.71
2023-05-05T14:29:38.949Z,20.78
2023-05-05T14:34:41.913Z,20.72
2023-05-05T14:39:43.544Z,19.68
2023-05-05T14:44:47.627Z,19.29
2023-05-05T14:49:50.540Z,17.89
2023-05-05T14:54:52.123Z,17.65
2023-05-05T14:59:53.718Z,17.35
2023-05-05T15:04:56.744Z,17.37
2023-05-05T15:10:00.517Z,16.79
2023-05-05T15:15:04.868Z,16.75
2023-05-05T15:20:08.936Z,16.23
2023-05-05T15:25:11.309Z,16.74
2023-05-05T15:30:14.033Z,15.83
2023-05-05T15:35:17.107Z,15.62
2023-05-05T15:40:18.982Z,15.69
2023-05-05T15:45:20.761Z,15.80
2023-05-05T15:50:23.828Z,16.08
2023-05-05T15:55:25.802Z,15.80
2023-05-05T16:00:27.606Z,15.61
2023-05-05T16:05:32.746Z,16.16
2023-05-05T16:10:34.332Z,16.42
2023-05-05T16:15:47.826Z,15.71
2023-05-05T16:20:50.847Z,15.31
2023-05-05T16:25:52.508Z,15.28
2023-05-05T16:30:54.174Z,14.87
2023-05-05T16:35:57.190Z,14.55
2023-05-05T16:41:01.610Z,14.44
2023-05-05T16:46:18.596Z,14.06
2023-05-05T16:51:28.863Z,13.87
2023-05-05T16:56:32.913Z,14.48
2023-05-05T17:01:36.716Z,14.25
2023-05-05T17:06:39.951Z,14.10
2023-05-05T17:11:41.642Z,13.42
2023-05-05T17:16:50.656Z,12.20
2023-05-05T17:27:56.878Z,11.85
2023-05-05T17:33:07.239Z,11.93
2023-05-05T17:38:08.919Z,11.79
2023-05-05T17:43:11.929Z,11.78
2023-05-05T17:48:13.621Z,11.91
2023-05-05T17:53:15.284Z,11.53
2023-05-05T17:58:18.202Z,11.57
2023-05-05T18:03:20.244Z,11.57
2023-05-05T18:08:21.954Z,11.59
2023-05-05T18:13:27.567Z,11.74
2023-05-05T18:18:36.282Z,11.64
2023-05-05T18:23:38.327Z,11.62
2023-05-05T18:28:41.520Z,11.55
2023-05-05T18:33:43.783Z,11.79
2023-05-05T18:39:27.044Z,12.20
2023-05-05T18:44:29.983Z,12.35
2023-05-05T18:49:31.779Z,12.25
2023-05-05T18:54:33.984Z,12.41
2023-05-05T18:59:40.270Z,12.53
2023-05-05T19:04:42.488Z,12.78
2023-05-05T19:09:44.118Z,13.24
2023-05-05T19:14:47.331Z,13.34
2023-05-05T19:20:10.078Z,13.39
2023-05-05T19:25:12.141Z,13.47
2023-05-05T19:30:15.545Z,13.73
2023-05-05T19:35:19.999Z,13.78
2023-05-05T19:40:21.877Z,13.72
2023-05-05T19:45:25.037Z,13.67
2023-05-05T20:02:36.779Z,13.44
2023-05-05T20:07:41.907Z,13.28
2023-05-05T20:12:45.944Z,13.12
2023-05-05T20:17:49.328Z,13.18
2023-05-05T20:22:51.005Z,13.16
2023-05-05T20:27:52.628Z,13.24
2023-05-05T20:32:55.689Z,13.19
2023-05-05T20:37:57.346Z,13.16
2023-05-05T20:42:59.329Z,13.24
2023-05-05T20:54:05.444Z,13.23
2023-05-05T20:59:06.987Z,13.11
2023-05-05T21:04:08.671Z,13.19
2023-05-05T21:09:11.833Z,13.22
2023-05-05T21:14:13.416Z,13.25
2023-05-05T21:19:15.150Z,13.09
2023-05-05T21:24:20.761Z,12.94
2023-05-05T21:29:22.448Z,13.10
2023-05-05T21:34:24.211Z,13.36
2023-05-05T21:39:29.735Z,13.28
2023-05-05T21:44:34.067Z,13.34
2023-05-05T21:49:35.769Z,13.22
2023-05-05T21:54:41.393Z,13.21
2023-05-05T21:59:43.034Z,13.17
2023-05-05T22:04:44.710Z,13.15
2023-05-05T22:09:50.278Z,13.16
2023-05-05T22:14:54.025Z,13.21
2023-05-05T22:19:55.706Z,12.80
2023-05-05T22:25:01.017Z,12.75
2023-05-05T22:30:02.717Z,12.53
2023-05-05T22:35:05.304Z,12.70
2023-05-05T22:40:09.489Z,12.70
2023-05-05T22:45:11.609Z,12.82
2023-05-05T22:50:13.364Z,12.42
2023-05-05T22:55:16.379Z,12.37
2023-05-05T23:00:18.339Z,12.29
2023-05-05T23:05:20.171Z,12.50
2023-05-05T23:10:23.148Z,12.45
2023-05-05T23:15:24.725Z,12.30
2023-05-05T23:20:26.855Z,12.16
2023-05-05T23:25:36.971Z,11.94
2023-05-05T23:30:38.703Z,11.69
2023-05-05T23:35:40.376Z,11.66
2023-05-05T23:40:45.568Z,11.63
2023-05-05T23:45:47.229Z,11.63
2023-05-05T23:50:49.024Z,11.83
2023-05-05T23:55:54.265Z,12.02
